createdAt,value
2022-08-09T00:00:21.251Z,100.00
2022-08-09T00:02:53.510Z,100.00
2022-08-09T00:06:19.335Z,100.00
2022-08-09T00:08:32.165Z,100.00
2022-08-09T00:11:24.987Z,100.00
2022-08-09T00:13:55.761Z,100.00
2022-08-09T00:16:36.602Z,100.00
2022-08-09T00:19:10.339Z,100.00
2022-08-09T00:21:55.568Z,100.00
2022-08-09T00:24:27.722Z,100.00
2022-08-09T00:27:00.280Z,100.00
2022-08-09T00:30:10.106Z,100.00
2022-08-09T00:32:26.690Z,100.00
2022-08-09T00:34:58.732Z,100.00
2022-08-09T00:37:30.318Z,100.00
2022-08-09T00:40:12.431Z,100.00
2022-08-09T00:44:15.501Z,100.00
2022-08-09T00:45:50.646Z,100.00
2022-08-09T00:48:24.167Z,100.00
2022-08-09T00:50:56.641Z,100.00
2022-08-09T00:53:27.080Z,100.00
2022-08-09T00:56:04.750Z,100.00
2022-08-09T00:58:42.567Z,100.00
2022-08-09T01:01:23.898Z,100.00
2022-08-09T01:04:08.495Z,100.00
2022-08-09T01:06:54.274Z,100.00
2022-08-09T01:09:38.843Z,100.00
2022-08-09T01:12:15.971Z,100.00
2022-08-09T01:14:56.815Z,100.00
2022-08-09T01:17:39.824Z,100.00
2022-08-09T01:20:12.849Z,100.00
2022-08-09T01:24:03.398Z,100.00
2022-08-09T01:26:28.466Z,100.00
2022-08-09T01:29:07.149Z,100.00
2022-08-09T01:32:31.214Z,100.00
2022-08-09T01:34:36.294Z,100.00
2022-08-09T01:37:12.221Z,100.00
2022-08-09T01:39:44.489Z,100.00
2022-08-09T01:42:15.436Z,100.00
2022-08-09T01:44:49.875Z,100.00
2022-08-09T01:47:21.967Z,100.00
2022-08-09T01:49:54.651Z,100.00
2022-08-09T01:52:27.978Z,100.00
2022-08-09T01:55:05.384Z,100.00
2022-08-09T01:57:45.878Z,100.00
2022-08-09T02:00:35.578Z,100.00
2022-08-09T02:03:13.570Z,100.00
2022-08-09T02:06:04.124Z,100.00
2022-08-09T02:08:57.907Z,100.00
2022-08-09T02:11:41.981Z,100.00
2022-08-09T02:14:25.157Z,100.00
2022-08-09T02:17:29.597Z,100.00
2022-08-09T02:19:49.793Z,100.00
2022-08-09T02:22:35.055Z,100.00
2022-08-09T02:25:17.329Z,100.00
2022-08-09T02:28:00.470Z,100.00
2022-08-09T02:30:41.418Z,100.00
2022-08-09T02:33:20.531Z,100.00
2022-08-09T02:36:02.729Z,100.00
2022-08-09T02:38:39.745Z,100.00
2022-08-09T02:41:24.412Z,100.00
2022-08-09T02:43:56.317Z,100.00
2022-08-09T02:46:29.622Z,100.00
2022-08-09T02:49:06.213Z,100.00
2022-08-09T02:51:40.805Z,100.00
2022-08-09T02:54:13.938Z,100.00
2022-08-09T02:56:51.572Z,100.00
2022-08-09T02:59:36.467Z,100.00
2022-08-09T03:02:12.113Z,100.00
2022-08-09T03:04:53.833Z,100.00
2022-08-09T03:07:25.521Z,100.00
2022-08-09T03:09:59.342Z,100.00
2022-08-09T03:12:37.436Z,100.00
2022-08-09T03:15:12.022Z,100.00
2022-08-09T03:17:42.618Z,100.00
2022-08-09T03:20:19.530Z,100.00
2022-08-09T03:22:58.253Z,100.00
2022-08-09T03:25:58.930Z,100.00
2022-08-09T03:28:28.895Z,100.00
2022-08-09T03:31:09.860Z,100.00
2022-08-09T03:33:53.247Z,100.00
2022-08-09T03:36:34.993Z,100.00
2022-08-09T03:39:06.698Z,100.00
2022-08-09T03:41:45.679Z,100.00
2022-08-09T03:44:21.760Z,100.00
2022-08-09T03:46:57.903Z,100.00
2022-08-09T03:49:35.726Z,100.00
2022-08-09T03:52:12.179Z,100.00
2022-08-09T03:54:43.153Z,100.00
2022-08-09T03:57:20.218Z,100.00
2022-08-09T04:00:00.795Z,100.00
2022-08-09T04:02:34.280Z,100.00
2022-08-09T04:05:26.941Z,100.00
2022-08-09T04:08:05.800Z,100.00
2022-08-09T04:10:38.141Z,100.00
2022-08-09T04:13:11.346Z,100.00
2022-08-09T04:16:20.516Z,100.00
2022-08-09T04:18:41.873Z,100.00
2022-08-09T04:21:12.371Z,100.00
2022-08-09T04:23:53.606Z,100.00
2022-08-09T04:26:24.753Z,100.00
2022-08-09T04:29:12.193Z,100.00
2022-08-09T04:31:46.846Z,100.00
2022-08-09T04:34:31.806Z,100.00
2022-08-09T04:37:03.214Z,100.00
2022-08-09T04:39:40.674Z,100.00
2022-08-09T04:42:11.117Z,100.00
2022-08-09T04:44:49.291Z,100.00
2022-08-09T04:47:19.994Z,100.00
2022-08-09T04:49:54.445Z,100.00
2022-08-09T04:52:27.640Z,100.00
2022-08-09T04:55:07.549Z,100.00
2022-08-09T04:57:58.415Z,100.00
2022-08-09T05:00:36.071Z,100.00
2022-08-09T05:03:13.323Z,100.00
2022-08-09T05:06:07.076Z,100.00
2022-08-09T05:08:38.725Z,100.00
2022-08-09T05:11:17.598Z,100.00
2022-08-09T05:13:55.007Z,100.00
2022-08-09T05:16:31.663Z,100.00
2022-08-09T05:19:03.923Z,100.00
2022-08-09T05:21:46.986Z,100.00
2022-08-09T05:24:22.391Z,100.00
2022-08-09T05:26:56.925Z,100.00
2022-08-09T05:29:31.592Z,100.00
2022-08-09T05:32:08.632Z,100.00
2022-08-09T05:34:42.944Z,100.00
2022-08-09T05:37:19.371Z,100.00
2022-08-09T05:39:50.031Z,100.00
2022-08-09T05:42:28.190Z,100.00
2022-08-09T05:45:09.428Z,100.00
2022-08-09T05:47:52.923Z,100.00
2022-08-09T05:50:50.757Z,100.00
2022-08-09T05:53:31.648Z,100.00
2022-08-09T05:56:10.559Z,100.00
2022-08-09T05:58:53.777Z,100.00
2022-08-09T06:01:34.228Z,100.00
2022-08-09T06:04:14.048Z,100.00
2022-08-09T06:06:49.941Z,100.00
2022-08-09T06:09:54.305Z,100.00
2022-08-09T06:12:19.805Z,100.00
2022-08-09T06:14:55.408Z,100.00
2022-08-09T06:17:39.215Z,100.00
2022-08-09T06:20:14.052Z,100.00
2022-08-09T06:22:51.063Z,100.00
2022-08-09T06:25:21.216Z,100.00
2022-08-09T06:27:54.635Z,100.00
2022-08-09T06:30:30.558Z,100.00
2022-08-09T06:33:29.942Z,100.00
2022-08-09T06:35:57.461Z,100.00
2022-08-09T06:38:32.251Z,100.00
2022-08-09T06:41:20.550Z,100.00
2022-08-09T06:43:52.982Z,100.00
2022-08-09T06:46:40.017Z,100.00
2022-08-09T06:49:11.127Z,100.00
2022-08-09T06:51:45.789Z,100.00
2022-08-09T06:54:20.421Z,100.00
2022-08-09T06:56:50.601Z,100.00
2022-08-09T07:00:54.636Z,100.00
2022-08-09T07:02:16.896Z,100.00
2022-08-09T07:04:46.915Z,100.00
2022-08-09T07:07:16.858Z,100.00
2022-08-09T07:10:22.294Z,100.00
2022-08-09T07:12:57.505Z,100.00
2022-08-09T07:16:36.322Z,100.00
2022-08-09T07:18:32.237Z,100.00
2022-08-09T07:21:07.669Z,100.00
2022-08-09T07:23:46.628Z,100.00
2022-08-09T07:26:32.026Z,98.89
2022-08-09T07:29:38.113Z,97.79
2022-08-09T07:32:13.083Z,97.77
2022-08-09T07:37:52.709Z,95.85
2022-08-09T07:40:27.838Z,95.44
2022-08-09T07:43:16.661Z,93.68
2022-08-09T07:45:50.714Z,91.78
2022-08-09T07:48:25.851Z,91.42
2022-08-09T07:52:03.653Z,89.04
2022-08-09T07:54:07.375Z,88.50
2022-08-09T07:56:49.188Z,86.48
2022-08-09T07:59:33.996Z,86.19
2022-08-09T08:02:10.906Z,86.55
2022-08-09T08:04:54.936Z,85.52
2022-08-09T08:09:02.689Z,82.81
2022-08-09T08:10:22.736Z,81.20
2022-08-09T08:12:57.653Z,81.70
2022-08-09T08:15:28.252Z,81.61
2022-08-09T08:18:03.887Z,78.86
2022-08-09T08:20:36.282Z,76.12
2022-08-09T08:23:16.813Z,76.88
2022-08-09T08:26:06.645Z,77.55
2022-08-09T08:28:41.478Z,77.16
2022-08-09T08:31:15.474Z,75.70
2022-08-09T08:33:52.131Z,75.47
2022-08-09T08:36:30.620Z,75.02
2022-08-09T08:39:04.546Z,73.64
2022-08-09T08:41:50.896Z,72.79
2022-08-09T08:44:28.903Z,72.98
2022-08-09T08:47:04.902Z,71.59
2022-08-09T08:49:47.250Z,70.37
2022-08-09T08:55:23.342Z,68.40
2022-08-09T08:57:58.302Z,68.68
2022-08-09T09:00:35.074Z,67.29
2022-08-09T09:03:16.337Z,66.81
2022-08-09T09:06:05.104Z,67.63
2022-08-09T09:08:42.458Z,66.87
2022-08-09T09:11:19.840Z,66.75
2022-08-09T09:13:58.453Z,63.56
2022-08-09T09:16:35.992Z,63.38
2022-08-09T09:22:11.645Z,60.42
2022-08-09T09:24:44.272Z,59.20
2022-08-09T09:28:06.837Z,58.85
2022-08-09T09:30:33.043Z,59.26
2022-08-09T09:33:16.322Z,59.04
2022-08-09T09:36:02.355Z,60.53
2022-08-09T09:38:50.904Z,60.90
2022-08-09T09:41:49.216Z,58.30
2022-08-09T09:44:31.586Z,59.16
2022-08-09T09:47:13.503Z,58.38
2022-08-09T09:50:14.496Z,57.04
2022-08-09T09:52:56.084Z,56.85
2022-08-09T09:55:42.997Z,56.09
2022-08-09T09:58:28.578Z,56.98
2022-08-09T10:01:06.316Z,55.93
2022-08-09T10:04:00.141Z,55.44
2022-08-09T10:06:34.069Z,54.06
2022-08-09T10:09:21.614Z,54.80
2022-08-09T10:12:12.505Z,53.35
2022-08-09T10:14:56.190Z,50.29
2022-08-09T10:17:50.365Z,47.01
2022-08-09T10:20:33.053Z,47.84
2022-08-09T10:23:23.773Z,48.19
2022-08-09T10:26:07.886Z,48.77
2022-08-09T10:28:45.410Z,47.50
2022-08-09T10:34:32.441Z,47.31
2022-08-09T10:37:04.603Z,46.72
2022-08-09T10:39:49.496Z,47.96
2022-08-09T10:42:27.187Z,48.25
2022-08-09T10:45:11.763Z,47.72
2022-08-09T10:48:26.001Z,46.78
2022-08-09T10:51:09.937Z,47.45
2022-08-09T10:53:54.165Z,48.15
2022-08-09T10:56:28.384Z,47.53
2022-08-09T10:59:05.212Z,48.34
2022-08-09T11:03:10.881Z,47.03
2022-08-09T11:04:50.459Z,47.13
2022-08-09T11:07:56.703Z,46.70
2022-08-09T11:11:00.679Z,46.57
2022-08-09T11:13:49.826Z,47.01
2022-08-09T11:16:40.967Z,48.08
2022-08-09T11:19:11.928Z,48.68
2022-08-09T11:22:16.719Z,48.10
2022-08-09T11:25:12.266Z,47.87
2022-08-09T11:28:02.450Z,45.32
2022-08-09T11:30:39.271Z,46.29
2022-08-09T11:33:36.891Z,48.11
2022-08-09T11:36:09.562Z,47.45
2022-08-09T11:38:44.899Z,48.05
2022-08-09T11:41:40.767Z,47.70
2022-08-09T11:44:11.779Z,47.98
2022-08-09T11:46:57.716Z,47.83
2022-08-09T11:50:56.228Z,48.15
2022-08-09T11:54:01.210Z,47.93
2022-08-09T11:56:47.720Z,47.24
2022-08-09T11:59:33.914Z,48.19
2022-08-09T12:02:17.154Z,48.58
2022-08-09T12:04:58.940Z,50.09
2022-08-09T12:07:41.979Z,50.63
2022-08-09T12:10:14.370Z,51.87
2022-08-09T12:14:08.219Z,49.69
2022-08-09T12:16:11.820Z,50.57
2022-08-09T12:19:03.250Z,49.44
2022-08-09T12:21:38.887Z,49.94
2022-08-09T12:24:27.154Z,50.37
2022-08-09T12:29:13.736Z,49.00
2022-08-09T12:30:29.929Z,50.04
2022-08-09T12:33:03.982Z,50.54
2022-08-09T12:35:40.009Z,48.28
2022-08-09T12:38:37.875Z,48.50
2022-08-09T12:41:09.122Z,47.02
2022-08-09T12:44:06.660Z,47.72
2022-08-09T12:46:31.182Z,48.07
2022-08-09T12:49:09.519Z,48.06
2022-08-09T12:52:00.265Z,46.88
2022-08-09T12:55:03.270Z,46.98
2022-08-09T12:57:47.318Z,47.07
2022-08-09T13:00:25.470Z,46.31
2022-08-09T13:03:03.439Z,44.81
2022-08-09T13:05:51.730Z,45.23
2022-08-09T13:08:40.004Z,46.06
2022-08-09T13:11:23.053Z,43.85
2022-08-09T13:14:42.181Z,43.52
2022-08-09T13:16:56.448Z,44.07
2022-08-09T13:20:07.541Z,43.80
2022-08-09T13:23:00.258Z,42.07
2022-08-09T13:25:14.297Z,42.70
2022-08-09T13:27:54.413Z,43.30
2022-08-09T13:30:50.516Z,44.14
2022-08-09T13:33:35.878Z,43.49
2022-08-09T13:36:37.552Z,41.91
2022-08-09T13:41:46.128Z,42.49
2022-08-09T13:42:12.716Z,43.78
2022-08-09T13:44:44.513Z,43.64
2022-08-09T13:47:33.120Z,43.94
2022-08-09T13:50:17.869Z,43.64
2022-08-09T13:52:49.696Z,43.40
2022-08-09T13:55:23.281Z,43.42
2022-08-09T13:57:59.370Z,43.26
2022-08-09T14:00:39.705Z,42.65
2022-08-09T14:04:02.602Z,42.29
2022-08-09T14:06:19.540Z,42.93
2022-08-09T14:08:56.699Z,42.73
2022-08-09T14:11:46.899Z,42.72
2022-08-09T14:14:26.297Z,42.69
2022-08-09T14:16:57.825Z,42.09
2022-08-09T14:19:33.218Z,43.34
2022-08-09T14:22:04.274Z,43.22
2022-08-09T14:24:39.631Z,43.76
2022-08-09T14:27:29.366Z,43.84
2022-08-09T14:30:37.385Z,43.63
2022-08-09T14:32:56.955Z,43.48
2022-08-09T14:35:28.281Z,44.01
2022-08-09T14:38:18.110Z,43.05
2022-08-09T14:41:02.276Z,44.25
2022-08-09T14:43:47.650Z,43.61
2022-08-09T14:46:58.753Z,44.07
2022-08-09T14:49:15.323Z,43.73
2022-08-09T14:51:46.717Z,43.50
2022-08-09T14:54:22.100Z,45.33
2022-08-09T14:56:57.684Z,44.13
2022-08-09T14:59:38.592Z,44.11
2022-08-09T15:02:11.094Z,44.71
2022-08-09T15:04:42.038Z,44.47
2022-08-09T15:07:13.661Z,44.33
2022-08-09T15:10:07.905Z,45.09
2022-08-09T15:12:36.862Z,46.60
2022-08-09T15:15:14.562Z,46.37
2022-08-09T15:17:49.860Z,46.36
2022-08-09T15:21:56.916Z,47.44
2022-08-09T15:24:01.905Z,47.16
2022-08-09T15:26:18.449Z,46.82
2022-08-09T15:28:55.424Z,45.80
2022-08-09T15:31:41.421Z,46.84
2022-08-09T15:34:32.483Z,48.49
2022-08-09T15:37:37.204Z,47.61
2022-08-09T15:40:12.029Z,47.44
2022-08-09T15:42:46.608Z,45.89
2022-08-09T15:45:21.581Z,46.27
2022-08-09T15:48:06.468Z,45.64
2022-08-09T15:50:54.872Z,46.14
2022-08-09T15:54:03.175Z,46.05
2022-08-09T15:56:31.100Z,47.60
2022-08-09T15:59:02.797Z,47.74
2022-08-09T16:01:35.246Z,47.64
2022-08-09T16:04:12.128Z,47.97
2022-08-09T16:06:44.662Z,48.45
2022-08-09T16:09:51.212Z,49.75
2022-08-09T16:12:13.068Z,50.93
2022-08-09T16:14:45.993Z,50.50
2022-08-09T16:17:17.220Z,52.16
2022-08-09T16:20:03.651Z,51.79
2022-08-09T16:22:48.568Z,52.68
2022-08-09T16:25:37.002Z,52.29
2022-08-09T16:28:11.989Z,53.21
2022-08-09T16:30:44.569Z,53.96
2022-08-09T16:33:23.947Z,55.96
2022-08-09T16:36:00.909Z,56.71
2022-08-09T16:38:37.983Z,57.74
2022-08-09T16:41:08.515Z,55.97
2022-08-09T16:43:46.606Z,56.25
2022-08-09T16:46:18.655Z,59.91
2022-08-09T16:49:05.914Z,60.16
2022-08-09T16:51:55.170Z,61.76
2022-08-09T16:54:34.534Z,60.96
2022-08-09T16:57:06.231Z,61.91
2022-08-09T16:59:44.075Z,61.15
2022-08-09T17:02:23.155Z,61.22
2022-08-09T17:04:53.360Z,63.50
2022-08-09T17:08:46.840Z,63.35
2022-08-09T17:10:22.682Z,63.67
2022-08-09T17:12:55.364Z,64.98
2022-08-09T17:15:58.663Z,64.59
2022-08-09T17:18:18.625Z,65.55
2022-08-09T17:20:56.822Z,65.72
2022-08-09T17:24:20.141Z,67.15
2022-08-09T17:26:31.388Z,67.93
2022-08-09T17:29:05.323Z,68.52
2022-08-09T17:31:48.845Z,69.77
2022-08-09T17:35:03.972Z,69.05
2022-08-09T17:37:22.245Z,69.74
2022-08-09T17:39:57.718Z,70.90
2022-08-09T17:42:51.363Z,71.78
2022-08-09T17:45:27.154Z,73.82
2022-08-09T17:48:02.470Z,74.69
2022-08-09T17:50:36.780Z,76.40
2022-08-09T17:53:19.380Z,76.66
2022-08-09T17:56:03.336Z,77.06
2022-08-09T17:58:45.799Z,77.40
2022-08-09T18:01:23.137Z,78.90
2022-08-09T18:03:54.487Z,79.50
2022-08-09T18:06:32.147Z,81.33
2022-08-09T18:09:08.627Z,82.39
2022-08-09T18:11:47.037Z,82.28
2022-08-09T18:14:49.841Z,82.13
2022-08-09T18:18:03.730Z,81.89
2022-08-09T18:20:59.183Z,82.72
2022-08-09T18:24:08.894Z,82.95
2022-08-09T18:26:06.016Z,83.07
2022-08-09T18:30:40.885Z,83.65
2022-08-09T18:31:55.101Z,83.88
2022-08-09T18:34:36.094Z,84.44
2022-08-09T18:37:10.574Z,85.51
2022-08-09T18:39:57.722Z,85.88
2022-08-09T18:42:35.837Z,86.45
2022-08-09T18:46:44.718Z,86.97
2022-08-09T18:48:05.495Z,88.59
2022-08-09T18:50:42.472Z,88.35
2022-08-09T18:53:16.631Z,89.13
2022-08-09T18:55:57.072Z,89.46
2022-08-09T18:58:43.203Z,90.28
2022-08-09T19:01:18.149Z,90.49
2022-08-09T19:04:01.293Z,91.51
2022-08-09T19:06:50.649Z,92.41
2022-08-09T19:10:12.991Z,91.48
2022-08-09T19:12:12.949Z,91.78
2022-08-09T19:14:53.634Z,96.30
2022-08-09T19:17:31.174Z,96.20
2022-08-09T19:20:12.481Z,95.88
2022-08-09T19:22:50.399Z,96.12
2022-08-09T19:25:42.546Z,97.18
2022-08-09T19:28:17.951Z,97.00
2022-08-09T19:30:48.203Z,97.74
2022-08-09T19:33:24.289Z,97.69
2022-08-09T19:35:58.024Z,97.43
2022-08-09T19:38:30.215Z,98.36
2022-08-09T19:41:04.994Z,99.22
2022-08-09T19:44:01.530Z,99.51
2022-08-09T19:46:35.505Z,100.00
2022-08-09T19:50:08.928Z,100.00
2022-08-09T19:52:12.237Z,100.00
2022-08-09T19:54:45.163Z,100.00
2022-08-09T19:57:17.642Z,100.00
2022-08-09T19:59:59.252Z,100.00
2022-08-09T20:04:23.811Z,100.00
2022-08-09T20:05:32.998Z,100.00
2022-08-09T20:08:33.532Z,100.00
2022-08-09T20:11:12.557Z,100.00
2022-08-09T20:13:53.895Z,100.00
2022-08-09T20:16:35.407Z,100.00
2022-08-09T20:19:47.517Z,100.00
2022-08-09T20:22:09.740Z,100.00
2022-08-09T20:24:40.957Z,100.00
2022-08-09T20:27:11.675Z,100.00
2022-08-09T20:29:44.047Z,100.00
2022-08-09T20:32:30.461Z,100.00
2022-08-09T20:35:04.012Z,100.00
2022-08-09T20:38:19.315Z,100.00
2022-08-09T20:40:30.370Z,100.00
2022-08-09T20:43:18.643Z,100.00
2022-08-09T20:46:33.450Z,100.00
2022-08-09T20:48:59.086Z,100.00
2022-08-09T20:51:29.700Z,100.00
2022-08-09T20:54:18.110Z,100.00
2022-08-09T20:56:53.462Z,100.00
2022-08-09T21:00:19.493Z,100.00
2022-08-09T21:02:18.662Z,100.00
2022-08-09T21:05:51.899Z,100.00
2022-08-09T21:08:00.166Z,100.00
2022-08-09T21:10:38.922Z,100.00
2022-08-09T21:13:12.381Z,100.00
2022-08-09T21:15:51.981Z,100.00
2022-08-09T21:18:27.637Z,100.00
2022-08-09T21:21:00.653Z,100.00
2022-08-09T21:23:51.393Z,100.00
2022-08-09T21:26:24.558Z,100.00
2022-08-09T21:28:57.974Z,100.00
2022-08-09T21:31:48.748Z,100.00
2022-08-09T21:34:29.254Z,100.00
2022-08-09T21:37:00.266Z,100.00
2022-08-09T21:39:42.023Z,100.00
2022-08-09T21:42:16.023Z,100.00
2022-08-09T21:44:46.519Z,100.00
2022-08-09T21:47:18.552Z,100.00
2022-08-09T21:52:35.568Z,100.00
2022-08-09T21:55:08.190Z,100.00
2022-08-09T21:57:59.063Z,100.00
2022-08-09T22:00:35.380Z,100.00
2022-08-09T22:03:19.771Z,100.00
2022-08-09T22:06:03.029Z,100.00
2022-08-09T22:08:35.709Z,100.00
2022-08-09T22:12:05.292Z,100.00
2022-08-09T22:14:02.784Z,100.00
2022-08-09T22:16:37.481Z,100.00
2022-08-09T22:19:23.812Z,100.00
2022-08-09T22:22:00.327Z,100.00
2022-08-09T22:24:35.696Z,100.00
2022-08-09T22:27:08.418Z,100.00
2022-08-09T22:29:46.441Z,100.00
2022-08-09T22:32:30.303Z,100.00
2022-08-09T22:35:06.654Z,100.00
2022-08-09T22:38:06.754Z,100.00
2022-08-09T22:40:40.665Z,100.00
2022-08-09T22:43:50.698Z,100.00
2022-08-09T22:48:16.877Z,100.00
2022-08-09T22:49:10.588Z,100.00
2022-08-09T22:51:49.469Z,100.00
2022-08-09T22:54:34.040Z,100.00
2022-08-09T22:57:06.883Z,100.00
2022-08-09T22:59:55.193Z,100.00
2022-08-09T23:02:35.896Z,100.00
2022-08-09T23:05:09.484Z,100.00
2022-08-09T23:08:27.284Z,100.00
2022-08-09T23:10:43.971Z,100.00
2022-08-09T23:13:13.958Z,100.00
2022-08-09T23:16:02.621Z,100.00
2022-08-09T23:18:36.518Z,100.00
2022-08-09T23:21:06.469Z,100.00
2022-08-09T23:23:37.179Z,100.00
2022-08-09T23:26:07.558Z,100.00
2022-08-09T23:28:40.525Z,100.00
2022-08-09T23:31:10.627Z,100.00
2022-08-09T23:33:43.185Z,100.00
2022-08-09T23:36:13.984Z,100.00
2022-08-09T23:38:48.868Z,100.00
2022-08-09T23:41:29.087Z,100.00
2022-08-09T23:44:03.754Z,100.00
2022-08-09T23:46:35.535Z,100.00
2022-08-09T23:49:09.642Z,100.00
2022-08-09T23:51:39.459Z,100.00
2022-08-09T23:54:09.751Z,100.00
2022-08-09T23:56:54.525Z,100.00
2022-08-09T23:59:46.939Z,100.00
